createdAt,value
2023-04-06T00:00:09.905Z,12.27
2023-04-06T00:02:37.124Z,11.20
2023-04-06T00:05:03.758Z,9.57
2023-04-06T00:07:30.893Z,9.18
2023-04-06T00:09:57.436Z,13.70
2023-04-06T00:12:24.041Z,10.23
2023-04-06T00:14:50.556Z,9.13
2023-04-06T00:17:17.024Z,11.45
2023-04-06T00:19:43.483Z,11.27
2023-04-06T00:22:10.008Z,9.85
2023-04-06T00:24:36.544Z,12.25
2023-04-06T00:27:03.200Z,11.20
2023-04-06T00:29:29.720Z,11.15
2023-04-06T00:31:56.540Z,15.23
2023-04-06T00:34:23.085Z,10.88
2023-04-06T00:36:49.539Z,15.60
2023-04-06T00:39:17.483Z,10.60
2023-04-06T00:41:50.020Z,12.32
2023-04-06T00:44:16.558Z,16.77
2023-04-06T00:46:43.187Z,10.50
2023-04-06T00:49:10.149Z,9.60
2023-04-06T00:51:36.977Z,12.90
2023-04-06T00:54:04.022Z,10.10
2023-04-06T00:56:30.586Z,10.57
2023-04-06T00:58:57.178Z,18.40
2023-04-06T01:01:24.838Z,12.65
2023-04-06T01:03:51.664Z,12.32
2023-04-06T01:07:14.172Z,12.32
2023-04-06T01:09:43.121Z,13.40
2023-04-06T01:12:09.842Z,13.10
2023-04-06T01:14:36.485Z,9.88
2023-04-06T01:17:03.165Z,8.70
2023-04-06T01:19:29.681Z,15.40
2023-04-06T01:21:56.415Z,14.48
2023-04-06T01:24:23.138Z,11.77
2023-04-06T01:26:49.701Z,10.93
2023-04-06T01:29:16.343Z,10.88
2023-04-06T01:31:42.909Z,8.65
2023-04-06T01:34:09.489Z,12.38
2023-04-06T01:36:36.206Z,10.57
2023-04-06T01:39:02.853Z,12.18
2023-04-06T01:41:29.379Z,10.77
2023-04-06T01:43:55.926Z,12.60
2023-04-06T01:46:22.574Z,16.00
2023-04-06T01:48:49.849Z,10.30
2023-04-06T01:51:16.386Z,13.40
2023-04-06T01:53:42.936Z,13.00
2023-04-06T01:56:09.432Z,15.80
2023-04-06T01:58:36.276Z,10.05
2023-04-06T02:01:03.757Z,14.10
2023-04-06T02:03:30.587Z,14.27
2023-04-06T02:05:57.077Z,10.95
2023-04-06T02:08:23.578Z,10.07
2023-04-06T02:10:50.091Z,10.75
2023-04-06T02:13:16.627Z,9.93
2023-04-06T02:15:43.080Z,12.32
2023-04-06T02:18:11.001Z,15.90
2023-04-06T02:20:37.573Z,12.73
2023-04-06T02:23:04.196Z,14.20
2023-04-06T02:25:30.686Z,13.73
2023-04-06T02:27:57.167Z,16.17
2023-04-06T02:30:23.802Z,11.35
2023-04-06T02:32:50.586Z,10.63
2023-04-06T02:35:17.228Z,11.25
2023-04-06T02:37:43.771Z,14.15
2023-04-06T02:40:10.967Z,13.27
2023-04-06T02:42:37.462Z,9.27
2023-04-06T02:45:04.277Z,10.15
2023-04-06T02:47:31.039Z,14.25
2023-04-06T02:49:57.554Z,13.02
2023-04-06T02:52:24.085Z,12.25
2023-04-06T02:54:52.075Z,11.98
2023-04-06T02:57:18.623Z,13.00
2023-04-06T02:59:45.340Z,14.43
2023-04-06T03:02:11.857Z,11.68
2023-04-06T03:04:38.475Z,12.98
2023-04-06T03:07:05.254Z,13.25
2023-04-06T03:09:31.738Z,20.23
2023-04-06T03:11:58.513Z,12.43
2023-04-06T03:14:25.445Z,11.70
2023-04-06T03:16:51.914Z,13.43
2023-04-06T03:19:18.360Z,14.35
2023-04-06T03:21:44.922Z,9.38
2023-04-06T03:24:11.757Z,12.65
2023-04-06T03:26:38.230Z,17.88
2023-04-06T03:29:04.739Z,11.15
2023-04-06T03:31:31.372Z,17.08
2023-04-06T03:33:58.011Z,12.98
2023-04-06T03:36:24.488Z,13.95
2023-04-06T03:38:51.018Z,8.73
2023-04-06T03:41:17.608Z,10.73
2023-04-06T03:43:44.257Z,12.02
2023-04-06T03:46:10.893Z,16.13
2023-04-06T03:48:37.466Z,16.23
2023-04-06T03:51:04.080Z,13.77
2023-04-06T03:53:30.631Z,14.68
2023-04-06T03:55:57.136Z,13.05
2023-04-06T03:58:23.683Z,8.98
2023-04-06T04:00:50.160Z,17.65
2023-04-06T04:03:16.721Z,12.90
2023-04-06T04:05:44.393Z,17.75
2023-04-06T04:08:10.903Z,12.60
2023-04-06T04:10:37.417Z,15.50
2023-04-06T04:13:03.950Z,15.32
2023-04-06T04:15:30.409Z,18.63
2023-04-06T04:17:56.979Z,12.30
2023-04-06T04:20:23.530Z,15.55
2023-04-06T04:22:50.218Z,15.70
2023-04-06T04:25:16.744Z,11.25
2023-04-06T04:27:43.474Z,17.27
2023-04-06T04:30:10.387Z,25.60
2023-04-06T04:32:36.974Z,14.77
2023-04-06T04:35:03.875Z,21.98
2023-04-06T04:37:30.406Z,15.55
2023-04-06T04:39:56.971Z,17.80
2023-04-06T04:42:23.463Z,18.08
2023-04-06T04:44:49.921Z,18.83
2023-04-06T04:47:16.372Z,20.88
2023-04-06T04:49:43.095Z,19.52
2023-04-06T04:52:09.650Z,21.10
2023-04-06T04:54:36.157Z,19.92
2023-04-06T04:57:02.660Z,21.95
2023-04-06T04:59:30.752Z,22.35
2023-04-06T05:01:57.521Z,25.35
2023-04-06T05:04:24.710Z,20.55
2023-04-06T05:06:51.748Z,23.20
2023-04-06T05:09:18.736Z,18.38
2023-04-06T05:11:45.411Z,23.48
2023-04-06T05:14:11.977Z,28.70
2023-04-06T05:16:38.504Z,20.98
2023-04-06T05:19:05.002Z,20.23
2023-04-06T05:21:32.734Z,23.33
2023-04-06T05:23:59.303Z,22.90
2023-04-06T05:26:25.960Z,25.33
2023-04-06T05:28:52.495Z,31.40
2023-04-06T05:31:19.138Z,22.35
2023-04-06T05:33:45.904Z,19.52
2023-04-06T05:36:14.895Z,18.38
2023-04-06T05:38:41.683Z,22.17
2023-04-06T05:41:08.256Z,20.85
2023-04-06T05:43:34.733Z,23.00
2023-04-06T05:46:01.384Z,25.52
2023-04-06T05:48:27.929Z,21.58
2023-04-06T05:50:54.400Z,21.13
2023-04-06T05:53:22.124Z,19.73
2023-04-06T05:55:48.687Z,25.75
2023-04-06T05:58:15.396Z,21.38
2023-04-06T06:00:43.470Z,18.67
2023-04-06T06:03:10.885Z,19.00
2023-04-06T06:05:37.617Z,16.50
2023-04-06T06:08:04.197Z,18.42
2023-04-06T06:10:30.868Z,18.60
2023-04-06T06:12:57.335Z,15.85
2023-04-06T06:15:23.951Z,17.58
2023-04-06T06:17:50.567Z,23.85
2023-04-06T06:20:17.323Z,29.20
2023-04-06T06:22:43.846Z,25.45
2023-04-06T06:25:10.363Z,21.83
2023-04-06T06:27:36.999Z,16.98
2023-04-06T06:30:03.963Z,15.27
2023-04-06T06:32:30.642Z,14.15
2023-04-06T06:34:57.241Z,20.77
2023-04-06T06:37:23.733Z,26.17
2023-04-06T06:39:50.416Z,13.95
2023-04-06T06:42:16.894Z,17.42
2023-04-06T06:44:43.435Z,19.17
2023-04-06T06:47:10.272Z,17.13
2023-04-06T06:49:36.785Z,17.27
2023-04-06T06:52:03.301Z,21.38
2023-04-06T06:54:29.789Z,20.80
2023-04-06T06:56:56.445Z,17.90
2023-04-06T06:59:23.092Z,26.90
2023-04-06T07:01:51.357Z,21.20
2023-04-06T07:04:17.906Z,17.13
2023-04-06T07:06:44.642Z,20.30
2023-04-06T07:09:11.190Z,16.58
2023-04-06T07:11:37.796Z,15.27
2023-04-06T07:14:04.568Z,13.40
2023-04-06T07:16:31.219Z,13.45
2023-04-06T07:18:57.795Z,18.25
2023-04-06T07:21:24.306Z,15.40
2023-04-06T07:23:51.723Z,17.77
2023-04-06T07:26:18.207Z,14.70
2023-04-06T07:28:44.740Z,16.15
2023-04-06T07:31:11.312Z,18.85
2023-04-06T07:33:38.016Z,13.02
2023-04-06T07:36:04.861Z,15.32
2023-04-06T07:38:31.613Z,11.18
2023-04-06T07:40:58.152Z,20.33
2023-04-06T07:43:24.932Z,11.07
2023-04-06T07:45:51.541Z,18.58
2023-04-06T07:48:18.260Z,14.15
2023-04-06T07:50:44.756Z,13.80
2023-04-06T07:53:11.370Z,13.30
2023-04-06T07:55:38.091Z,12.65
2023-04-06T07:58:04.554Z,8.10
2023-04-06T08:00:31.517Z,8.63
2023-04-06T08:02:58.178Z,14.30
2023-04-06T08:05:24.988Z,10.73
2023-04-06T08:07:51.493Z,11.80
2023-04-06T08:10:17.991Z,10.32
2023-04-06T08:12:44.503Z,15.27
2023-04-06T08:15:11.414Z,9.55
2023-04-06T08:17:37.939Z,7.13
2023-04-06T08:20:04.860Z,9.98
2023-04-06T08:22:31.445Z,9.00
2023-04-06T08:24:57.943Z,11.52
2023-04-06T08:27:24.453Z,10.45
2023-04-06T08:29:51.679Z,9.38
2023-04-06T08:32:18.291Z,7.13
2023-04-06T08:34:45.005Z,10.52
2023-04-06T08:37:11.488Z,6.18
2023-04-06T08:39:37.953Z,5.75
2023-04-06T08:42:04.454Z,11.25
2023-04-06T08:44:32.997Z,9.40
2023-04-06T08:47:00.491Z,7.25
2023-04-06T08:49:27.538Z,7.53
2023-04-06T08:51:55.267Z,8.63
2023-04-06T08:54:21.743Z,6.85
2023-04-06T08:56:49.418Z,9.13
2023-04-06T08:59:16.620Z,8.98
2023-04-06T09:01:45.239Z,8.00
2023-04-06T09:04:13.680Z,10.85
2023-04-06T09:06:41.687Z,4.50
2023-04-06T09:09:08.635Z,6.22
2023-04-06T09:11:52.801Z,10.23
2023-04-06T09:14:35.992Z,5.10
2023-04-06T09:17:02.618Z,8.45
2023-04-06T09:19:29.115Z,4.90
2023-04-06T09:22:08.133Z,3.80
2023-04-06T09:24:48.797Z,8.95
2023-04-06T09:27:16.404Z,6.40
2023-04-06T09:29:44.053Z,11.57
2023-04-06T09:32:12.098Z,7.85
2023-04-06T09:34:41.646Z,8.77
2023-04-06T09:37:19.261Z,7.85
2023-04-06T09:39:47.364Z,4.38
2023-04-06T09:42:35.888Z,5.55
2023-04-06T09:45:03.663Z,10.40
2023-04-06T09:47:32.154Z,6.65
2023-04-06T09:50:00.599Z,5.03
2023-04-06T09:52:31.476Z,9.05
2023-04-06T09:55:02.318Z,6.73
2023-04-06T09:57:56.895Z,3.50
2023-04-06T10:00:24.498Z,6.25
2023-04-06T10:03:12.674Z,4.65
2023-04-06T10:05:46.973Z,3.25
2023-04-06T10:08:15.494Z,5.28
2023-04-06T10:10:42.635Z,3.45
2023-04-06T10:13:12.087Z,4.80
2023-04-06T10:15:39.769Z,3.63
2023-04-06T10:18:08.467Z,8.57
2023-04-06T10:20:37.859Z,6.80
2023-04-06T10:23:24.961Z,3.88
2023-04-06T10:25:59.302Z,4.28
2023-04-06T10:28:31.198Z,9.35
2023-04-06T10:30:59.620Z,7.35
2023-04-06T10:33:28.176Z,3.88
2023-04-06T10:35:56.505Z,2.50
2023-04-06T10:38:34.748Z,10.02
2023-04-06T10:41:06.444Z,4.55
2023-04-06T10:46:07.348Z,9.75
2023-04-06T10:48:46.302Z,5.15
2023-04-06T10:51:14.454Z,7.38
2023-04-06T10:53:48.534Z,8.95
2023-04-06T10:56:18.502Z,5.60
2023-04-06T10:58:47.633Z,3.58
2023-04-06T11:01:17.538Z,7.50
2023-04-06T11:03:49.248Z,7.63
2023-04-06T11:06:27.702Z,4.15
2023-04-06T11:08:55.652Z,6.70
2023-04-06T11:11:24.315Z,5.65
2023-04-06T11:13:58.750Z,5.90
2023-04-06T11:16:27.826Z,4.80
2023-04-06T11:19:06.915Z,3.97
2023-04-06T11:21:52.251Z,6.53
2023-04-06T11:24:25.585Z,6.35
2023-04-06T11:26:55.225Z,3.45
2023-04-06T11:29:27.366Z,4.72
2023-04-06T11:31:59.184Z,3.03
2023-04-06T11:34:27.100Z,6.05
2023-04-06T11:36:59.378Z,5.32
2023-04-06T11:39:28.647Z,4.50
2023-04-06T11:42:00.951Z,6.75
2023-04-06T11:44:32.879Z,6.82
2023-04-06T11:46:59.807Z,7.25
2023-04-06T11:49:33.248Z,4.32
2023-04-06T11:52:01.739Z,6.43
2023-04-06T11:54:39.074Z,3.70
2023-04-06T11:57:06.284Z,5.28
2023-04-06T11:59:33.961Z,6.60
2023-04-06T12:02:02.811Z,3.67
2023-04-06T12:04:29.459Z,3.75
2023-04-06T12:06:56.658Z,5.07
2023-04-06T12:09:23.130Z,4.65
2023-04-06T12:11:49.738Z,3.08
2023-04-06T12:14:17.070Z,3.00
2023-04-06T12:16:43.743Z,8.07
2023-04-06T12:19:10.477Z,5.68
2023-04-06T12:21:38.287Z,5.03
2023-04-06T12:24:06.252Z,5.18
2023-04-06T12:26:33.225Z,6.60
2023-04-06T12:29:07.498Z,6.13
2023-04-06T12:31:36.590Z,5.35
2023-04-06T12:34:05.187Z,5.20
2023-04-06T12:36:32.489Z,6.03
2023-04-06T12:38:59.919Z,3.80
2023-04-06T12:41:26.583Z,5.47
2023-04-06T12:43:53.191Z,3.15
2023-04-06T12:46:19.753Z,5.65
2023-04-06T12:48:46.389Z,6.00
2023-04-06T12:51:13.216Z,4.30
2023-04-06T12:53:39.704Z,5.35
2023-04-06T12:56:24.896Z,10.77
2023-04-06T12:58:52.761Z,5.38
2023-04-06T13:01:19.585Z,4.35
2023-04-06T13:03:46.171Z,5.82
2023-04-06T13:06:13.897Z,3.25
2023-04-06T13:08:40.892Z,10.50
2023-04-06T13:11:10.060Z,5.25
2023-04-06T13:13:37.733Z,7.30
2023-04-06T13:16:06.848Z,6.18
2023-04-06T13:18:33.661Z,9.18
2023-04-06T13:21:03.161Z,6.47
2023-04-06T13:23:29.943Z,7.03
2023-04-06T13:26:05.173Z,4.93
2023-04-06T13:28:32.641Z,8.23
2023-04-06T13:31:01.235Z,5.97
2023-04-06T13:33:28.998Z,4.75
2023-04-06T13:35:55.609Z,5.57
2023-04-06T13:38:22.140Z,7.60
2023-04-06T13:40:50.761Z,4.15
2023-04-06T13:43:20.174Z,4.93
2023-04-06T13:45:55.870Z,7.93
2023-04-06T13:48:22.751Z,5.15
2023-04-06T13:50:49.250Z,6.45
2023-04-06T13:53:15.988Z,4.70
2023-04-06T13:55:42.504Z,7.05
2023-04-06T13:58:09.363Z,4.45
2023-04-06T14:00:36.682Z,7.18
2023-04-06T14:03:03.593Z,10.73
2023-04-06T14:05:33.906Z,7.50
2023-04-06T14:08:00.452Z,5.85
2023-04-06T14:10:28.506Z,5.53
2023-04-06T14:12:55.517Z,6.45
2023-04-06T14:15:22.949Z,7.28
2023-04-06T14:17:49.864Z,4.10
2023-04-06T14:20:17.168Z,8.45
2023-04-06T14:22:44.033Z,6.53
2023-04-06T14:25:12.331Z,7.47
2023-04-06T14:27:39.336Z,10.05
2023-04-06T14:30:06.735Z,8.35
2023-04-06T14:32:33.459Z,4.43
2023-04-06T14:35:00.269Z,6.63
2023-04-06T14:37:27.271Z,9.45
2023-04-06T14:39:53.931Z,7.63
2023-04-06T14:42:20.477Z,8.88
2023-04-06T14:44:47.122Z,5.25
2023-04-06T14:47:16.616Z,4.97
2023-04-06T14:49:43.323Z,8.75
2023-04-06T14:52:09.787Z,7.53
2023-04-06T14:54:36.247Z,5.80
2023-04-06T14:57:03.132Z,8.13
2023-04-06T15:01:56.071Z,7.85
2023-04-06T15:04:22.774Z,7.50
2023-04-06T15:06:49.287Z,6.03
2023-04-06T15:09:15.740Z,6.00
2023-04-06T15:11:42.301Z,6.28
2023-04-06T15:14:08.845Z,4.38
2023-04-06T15:16:35.719Z,5.32
2023-04-06T15:19:03.046Z,6.50
2023-04-06T15:21:29.533Z,11.73
2023-04-06T15:23:56.626Z,6.38
2023-04-06T15:26:23.258Z,6.32
2023-04-06T15:28:49.776Z,5.13
2023-04-06T15:31:28.097Z,5.85
2023-04-06T15:34:00.363Z,6.93
2023-04-06T15:36:30.748Z,5.05
2023-04-06T15:38:58.387Z,5.50
2023-04-06T15:41:26.972Z,7.78
2023-04-06T15:43:54.536Z,3.90
2023-04-06T15:46:21.578Z,5.40
2023-04-06T15:48:48.709Z,5.15
2023-04-06T15:51:16.584Z,5.35
2023-04-06T15:53:43.130Z,5.38
2023-04-06T15:56:09.677Z,7.10
2023-04-06T15:58:36.768Z,4.25
2023-04-06T16:01:17.697Z,5.28
2023-04-06T16:03:45.997Z,11.60
2023-04-06T16:06:12.871Z,8.95
2023-04-06T16:08:40.348Z,10.05
2023-04-06T16:11:07.033Z,6.07
2023-04-06T16:13:33.767Z,4.85
2023-04-06T16:16:00.506Z,8.63
2023-04-06T16:18:27.398Z,4.88
2023-04-06T16:20:54.111Z,7.32
2023-04-06T16:23:20.760Z,7.10
2023-04-06T16:25:47.247Z,7.60
2023-04-06T16:28:13.817Z,7.72
2023-04-06T16:30:42.464Z,5.60
2023-04-06T16:33:12.013Z,6.88
2023-04-06T16:35:46.189Z,4.35
2023-04-06T16:38:13.719Z,6.97
2023-04-06T16:40:40.430Z,5.53
2023-04-06T16:43:06.994Z,4.07
2023-04-06T16:45:33.574Z,4.32
2023-04-06T16:48:00.252Z,5.72
2023-04-06T16:50:27.054Z,8.82
2023-04-06T16:52:53.565Z,5.65
2023-04-06T16:55:20.573Z,4.63
2023-04-06T16:57:49.152Z,7.63
2023-04-06T17:00:16.613Z,6.13
2023-04-06T17:02:47.246Z,5.60
2023-04-06T17:05:14.481Z,4.57
2023-04-06T17:07:41.234Z,4.93
2023-04-06T17:10:08.329Z,4.82
2023-04-06T17:12:34.874Z,6.45
2023-04-06T17:15:01.425Z,6.80
2023-04-06T17:17:27.890Z,5.30
2023-04-06T17:19:54.441Z,5.60
2023-04-06T17:22:21.335Z,7.00
2023-04-06T17:24:48.827Z,5.28
2023-04-06T17:27:16.276Z,7.78
2023-04-06T17:29:42.861Z,8.40
2023-04-06T17:32:10.795Z,5.57
2023-04-06T17:34:37.268Z,6.93
2023-04-06T17:37:03.748Z,4.45
2023-04-06T17:39:31.411Z,4.53
2023-04-06T17:41:58.079Z,8.77
2023-04-06T17:44:24.721Z,8.13
2023-04-06T17:46:51.234Z,7.85
2023-04-06T17:49:17.713Z,8.82
2023-04-06T17:51:45.290Z,9.63
2023-04-06T17:54:11.759Z,6.80
2023-04-06T17:56:38.209Z,8.02
2023-04-06T17:59:07.960Z,5.25
2023-04-06T18:01:34.830Z,5.47
2023-04-06T18:04:01.522Z,6.63
2023-04-06T18:06:28.044Z,8.55
2023-04-06T18:08:54.851Z,5.80
2023-04-06T18:11:25.615Z,8.38
2023-04-06T18:13:52.472Z,6.37
2023-04-06T18:16:22.339Z,6.07
2023-04-06T18:18:49.112Z,6.75
2023-04-06T18:21:15.694Z,6.60
2023-04-06T18:23:42.149Z,9.57
2023-04-06T18:26:17.225Z,8.05
2023-04-06T18:28:43.683Z,7.63
2023-04-06T18:31:10.423Z,9.85
2023-04-06T18:33:36.930Z,13.48
2023-04-06T18:36:03.651Z,8.88
2023-04-06T18:38:30.415Z,6.28
2023-04-06T18:40:57.002Z,6.07
2023-04-06T18:43:23.495Z,6.32
2023-04-06T18:45:49.979Z,7.50
2023-04-06T18:48:16.710Z,8.18
2023-04-06T18:50:58.762Z,9.55
2023-04-06T18:53:25.417Z,12.45
2023-04-06T18:55:51.964Z,7.88
2023-04-06T18:58:19.282Z,6.40
2023-04-06T19:00:46.030Z,8.13
2023-04-06T19:03:12.638Z,7.97
2023-04-06T19:05:42.291Z,10.63
2023-04-06T19:08:09.255Z,9.98
2023-04-06T19:10:37.373Z,9.02
2023-04-06T19:13:04.649Z,8.80
2023-04-06T19:15:31.739Z,9.07
2023-04-06T19:17:58.706Z,8.52
2023-04-06T19:20:25.653Z,10.50
2023-04-06T19:22:52.109Z,9.07
2023-04-06T19:25:18.988Z,10.55
2023-04-06T19:27:45.657Z,15.43
2023-04-06T19:30:12.233Z,15.77
2023-04-06T19:32:40.040Z,10.52
2023-04-06T19:35:07.831Z,10.70
2023-04-06T19:37:36.402Z,10.90
2023-04-06T19:40:07.537Z,11.30
2023-04-06T19:42:34.583Z,11.35
2023-04-06T19:45:01.102Z,12.80
2023-04-06T19:47:27.758Z,9.13
2023-04-06T19:49:56.101Z,12.70
2023-04-06T19:52:22.901Z,15.20
2023-04-06T19:54:49.420Z,15.13
2023-04-06T19:57:15.903Z,12.23
2023-04-06T19:59:42.774Z,10.88
2023-04-06T20:02:09.340Z,9.73
2023-04-06T20:04:36.127Z,11.10
2023-04-06T20:07:02.799Z,9.93
2023-04-06T20:09:29.375Z,12.07
2023-04-06T20:11:56.075Z,11.52
2023-04-06T20:14:23.222Z,10.80
2023-04-06T20:16:50.731Z,10.07
2023-04-06T20:19:17.253Z,14.43
2023-04-06T20:21:44.095Z,12.30
2023-04-06T20:24:11.666Z,13.60
2023-04-06T20:26:38.261Z,10.63
2023-04-06T20:29:04.866Z,15.57
2023-04-06T20:31:31.512Z,18.27
2023-04-06T20:33:58.011Z,17.08
2023-04-06T20:36:24.499Z,16.38
2023-04-06T20:38:51.013Z,20.58
2023-04-06T20:41:17.593Z,11.15
2023-04-06T20:43:44.033Z,10.88
2023-04-06T20:46:15.767Z,12.82
2023-04-06T20:48:42.324Z,11.38
2023-04-06T20:51:08.779Z,11.82
2023-04-06T20:53:35.355Z,11.70
2023-04-06T20:56:02.141Z,9.82
2023-04-06T20:58:28.642Z,10.35
2023-04-06T21:00:55.384Z,11.38
2023-04-06T21:03:22.080Z,10.57
2023-04-06T21:05:57.259Z,13.25
2023-04-06T21:08:23.866Z,10.05
2023-04-06T21:10:50.311Z,10.10
2023-04-06T21:13:16.800Z,12.23
2023-04-06T21:15:44.288Z,14.43
2023-04-06T21:18:11.640Z,16.05
2023-04-06T21:20:39.488Z,10.98
2023-04-06T21:23:05.935Z,12.95
2023-04-06T21:25:32.624Z,10.10
2023-04-06T21:27:59.318Z,9.32
2023-04-06T21:30:25.782Z,10.75
2023-04-06T21:32:52.369Z,10.25
2023-04-06T21:35:18.866Z,10.00
2023-04-06T21:37:45.425Z,8.52
2023-04-06T21:40:12.854Z,18.38
2023-04-06T21:42:39.456Z,10.55
2023-04-06T21:45:06.389Z,11.30
2023-04-06T21:47:35.051Z,16.02
2023-04-06T21:50:01.539Z,16.33
2023-04-06T21:52:27.984Z,9.10
2023-04-06T21:54:54.598Z,16.63
2023-04-06T21:57:21.059Z,10.75
2023-04-06T21:59:47.856Z,12.45
2023-04-06T22:02:14.518Z,9.70
2023-04-06T22:04:41.230Z,11.65
2023-04-06T22:07:07.944Z,11.80
2023-04-06T22:09:35.187Z,12.73
2023-04-06T22:12:01.762Z,19.88
2023-04-06T22:14:28.735Z,10.95
2023-04-06T22:16:55.206Z,13.70
2023-04-06T22:19:21.733Z,14.30
2023-04-06T22:21:48.242Z,9.77
2023-04-06T22:24:14.744Z,11.95
2023-04-06T22:26:41.425Z,13.40
2023-04-06T22:29:07.928Z,20.50
2023-04-06T22:31:34.506Z,13.20
2023-04-06T22:34:01.078Z,11.10
2023-04-06T22:36:27.620Z,14.35
2023-04-06T22:38:54.130Z,19.17
2023-04-06T22:41:21.041Z,13.30
2023-04-06T22:43:47.508Z,17.13
2023-04-06T22:48:40.536Z,12.98
2023-04-06T22:51:07.021Z,17.92
2023-04-06T22:53:33.491Z,13.55
2023-04-06T22:56:00.316Z,15.73
2023-04-06T22:58:26.773Z,17.27
2023-04-06T23:00:54.123Z,17.98
2023-04-06T23:03:20.924Z,13.65
2023-04-06T23:05:47.780Z,17.02
2023-04-06T23:08:14.288Z,14.48
2023-04-06T23:10:42.123Z,15.68
2023-04-06T23:13:09.764Z,19.08
2023-04-06T23:15:36.983Z,18.65
2023-04-06T23:18:03.614Z,14.02
2023-04-06T23:20:30.237Z,17.08
2023-04-06T23:22:56.759Z,17.83
2023-04-06T23:25:23.262Z,20.48
2023-04-06T23:27:49.731Z,14.48
2023-04-06T23:30:16.337Z,14.63
2023-04-06T23:32:42.910Z,16.80
2023-04-06T23:35:09.644Z,15.38
2023-04-06T23:37:36.230Z,19.85
2023-04-06T23:40:02.701Z,20.92
2023-04-06T23:42:29.370Z,15.93
2023-04-06T23:44:56.098Z,20.55
2023-04-06T23:47:22.973Z,17.50
2023-04-06T23:49:49.565Z,14.88
2023-04-06T23:52:16.297Z,16.45
2023-04-06T23:54:42.752Z,16.52
2023-04-06T23:57:09.266Z,21.17
2023-04-06T23:59:35.810Z,18.38
